Time;durP1;ratioP1;P1;durP2;ratioP2;P2;SDS_P1;SDS_P2;PMS_P1;PMS_P2;Temp;Humidity;BMP_temperature;BMP_pressure;BME280_temperature;BME280_humidity;BME280_pressure;Samples;Min_cycle;Max_cycle;Signal;HPM_P1;HPM_P2
2023/06/02 00:02:08;;;;;;;18.25;5.00;;;;;;;12.96;86.25;102001.63;5051926;28;20116;-65
2023/06/02 00:04:35;;;;;;;20.23;5.30;;;;;;;12.95;86.29;102006.94;5052939;28;20033;-65
2023/06/02 00:07:03;;;;;;;16.67;4.88;;;;;;;12.80;86.73;102000.53;5053541;28;20032;-63
2023/06/02 00:09:29;;;;;;;18.50;4.90;;;;;;;12.80;86.65;102008.50;5050224;28;20037;-65
2023/06/02 00:11:54;;;;;;;18.67;5.15;;;;;;;12.88;87.10;102004.16;5052253;28;20041;-65
2023/06/02 00:14:21;;;;;;;18.52;5.20;;;;;;;12.85;85.92;102001.47;5051912;28;20035;-62
2023/06/02 00:16:46;;;;;;;17.48;5.50;;;;;;;12.77;86.25;101999.59;5051402;28;20127;-65
2023/06/02 00:19:13;;;;;;;18.08;5.28;;;;;;;12.70;86.97;101998.63;5051784;28;20582;-62
2023/06/02 00:21:40;;;;;;;18.60;5.32;;;;;;;12.67;88.19;101995.94;5051650;28;20116;-63
2023/06/02 00:24:06;;;;;;;17.30;5.40;;;;;;;12.60;86.86;102002.03;5052080;28;20037;-62
2023/06/02 00:26:32;;;;;;;18.80;5.05;;;;;;;12.59;86.97;102002.91;5051489;28;20090;-65
2023/06/02 00:28:57;;;;;;;19.70;5.50;;;;;;;12.55;88.20;101999.28;5054095;28;20136;-64
2023/06/02 00:31:22;;;;;;;18.73;5.32;;;;;;;12.51;87.81;102001.03;5047753;28;20140;-64
2023/06/02 00:33:49;;;;;;;17.90;5.47;;;;;;;12.40;88.27;101997.31;5051560;28;20075;-62
2023/06/02 00:36:14;;;;;;;19.80;5.18;;;;;;;12.39;87.09;102006.13;5051586;28;20021;-64
2023/06/02 00:38:41;;;;;;;17.63;4.95;;;;;;;12.46;85.34;102002.69;5050847;28;20087;-65
2023/06/02 00:41:07;;;;;;;18.65;5.20;;;;;;;12.32;86.38;102004.25;5052786;28;20025;-64
2023/06/02 00:43:32;;;;;;;17.65;5.20;;;;;;;12.36;86.69;102003.44;5051730;28;20672;-65
2023/06/02 00:45:58;;;;;;;17.92;4.88;;;;;;;12.31;84.95;101997.19;5051741;28;20035;-65
2023/06/02 00:48:23;;;;;;;19.58;5.13;;;;;;;12.28;83.76;101997.13;5051071;28;20056;-67
2023/06/02 00:50:49;;;;;;;20.20;4.70;;;;;;;12.20;84.94;102000.56;5050841;28;20060;-64
2023/06/02 00:53:15;;;;;;;18.42;4.90;;;;;;;12.17;84.05;101986.34;5054491;28;20045;-64
2023/06/02 00:55:41;;;;;;;17.73;4.88;;;;;;;12.14;85.10;101999.56;5051656;28;20040;-64
2023/06/02 00:58:07;;;;;;;18.90;5.10;;;;;;;12.13;85.16;102000.41;5051824;28;20594;-64
2023/06/02 01:00:36;;;;;;;20.40;4.97;;;;;;;12.16;85.33;101997.84;5051395;28;20036;-64
2023/06/02 01:03:02;;;;;;;18.88;4.97;;;;;;;12.21;85.63;101996.13;5051066;28;20013;-64
2023/06/02 01:05:29;;;;;;;19.60;5.15;;;;;;;12.20;84.78;101995.25;5052082;28;20052;-67
2023/06/02 01:07:58;;;;;;;19.25;5.30;;;;;;;12.16;84.65;102008.44;5051486;28;20037;-64
2023/06/02 01:10:24;;;;;;;19.83;5.20;;;;;;;12.01;85.21;102006.41;5051016;28;20120;-64
2023/06/02 01:12:50;;;;;;;20.45;5.53;;;;;;;11.93;85.42;102000.06;5051551;28;20551;-64
2023/06/02 01:15:16;;;;;;;19.80;5.30;;;;;;;12.00;84.52;102007.28;5051289;28;20120;-64
2023/06/02 01:17:45;;;;;;;18.95;5.25;;;;;;;11.95;82.80;102008.97;5050949;28;20502;-65
2023/06/02 01:20:12;;;;;;;22.42;5.45;;;;;;;11.90;79.95;102007.94;5050957;28;20048;-65
2023/06/02 01:22:49;;;;;;;21.92;5.45;;;;;;;11.89;80.62;102006.19;5051185;28;20515;-64
2023/06/02 01:25:19;;;;;;;20.88;5.32;;;;;;;11.94;79.77;102004.50;5048029;28;20120;-70
2023/06/02 01:27:45;;;;;;;22.55;5.55;;;;;;;11.91;79.66;102004.44;5050810;28;20032;-69
2023/06/02 01:30:11;;;;;;;20.55;5.72;;;;;;;11.86;79.44;102005.25;5050525;28;20033;-67
2023/06/02 01:32:41;;;;;;;20.88;5.57;;;;;;;11.84;80.24;102006.97;5051052;28;20072;-67
2023/06/02 01:35:09;;;;;;;21.02;5.57;;;;;;;11.73;81.30;102013.84;5049267;28;20107;-67
2023/06/02 01:37:47;;;;;;;20.52;5.38;;;;;;;11.81;81.94;102014.88;5050904;28;20028;-67
2023/06/02 01:40:14;;;;;;;21.83;5.55;;;;;;;11.76;82.95;102003.28;5049246;28;20120;-67
2023/06/02 01:42:41;;;;;;;20.40;5.20;;;;;;;11.67;83.26;102004.03;5053702;28;20025;-68
2023/06/02 01:45:07;;;;;;;21.60;5.30;;;;;;;11.77;83.02;102004.22;5050990;28;20029;-67
2023/06/02 01:47:33;;;;;;;22.33;5.20;;;;;;;11.72;81.34;102001.44;5050896;28;20029;-69
2023/06/02 01:49:58;;;;;;;20.63;5.07;;;;;;;11.68;83.00;102004.94;5050285;28;20110;-67
2023/06/02 01:52:23;;;;;;;21.23;4.75;;;;;;;11.74;82.97;101998.84;5049704;28;20037;-67
2023/06/02 01:54:50;;;;;;;20.48;5.10;;;;;;;11.79;82.26;101998.03;5052246;28;20107;-66
2023/06/02 01:57:16;;;;;;;21.13;5.03;;;;;;;11.73;81.93;101992.66;5054812;28;20059;-68
2023/06/02 01:59:41;;;;;;;21.17;5.00;;;;;;;11.74;82.29;101999.75;5054300;28;20033;-68
2023/06/02 02:02:07;;;;;;;19.13;4.93;;;;;;;11.75;82.74;101996.22;5054363;28;20468;-67
2023/06/02 02:04:32;;;;;;;20.65;5.25;;;;;;;11.74;82.61;101997.09;5054299;28;20044;-67
2023/06/02 02:07:01;;;;;;;21.40;5.20;;;;;;;11.68;84.06;101997.88;5054253;28;20035;-66
2023/06/02 02:09:27;;;;;;;19.42;4.88;;;;;;;11.68;84.71;102003.16;5052803;28;20120;-66
2023/06/02 02:11:52;;;;;;;22.63;5.10;;;;;;;11.71;84.27;101997.03;5054107;28;20059;-67
2023/06/02 02:14:19;;;;;;;19.77;4.80;;;;;;;11.72;84.78;102000.56;5054123;28;20468;-68
2023/06/02 02:16:49;;;;;;;21.05;5.03;;;;;;;11.77;84.99;102005.09;5053542;28;20044;-67
2023/06/02 02:19:16;;;;;;;21.08;4.82;;;;;;;11.77;85.03;102004.22;5053038;28;20402;-66
2023/06/02 02:21:41;;;;;;;21.08;5.07;;;;;;;11.77;85.49;102005.09;5054039;28;20032;-67
2023/06/02 02:24:07;;;;;;;20.60;5.10;;;;;;;11.82;84.78;101999.88;5054171;28;20021;-67
2023/06/02 02:26:32;;;;;;;19.80;4.82;;;;;;;11.86;85.46;102002.59;5053488;28;20040;-68
2023/06/02 02:28:58;;;;;;;19.63;4.80;;;;;;;11.86;85.18;101996.41;5053630;28;20049;-67
2023/06/02 02:31:23;;;;;;;21.40;5.00;;;;;;;11.83;85.96;101994.59;5057027;28;20406;-66
2023/06/02 02:33:49;;;;;;;22.10;5.00;;;;;;;11.81;86.52;101996.34;5053535;28;20129;-65
2023/06/02 02:36:16;;;;;;;20.27;4.90;;;;;;;11.85;86.63;101992.88;5053693;28;20033;-65
2023/06/02 02:38:41;;;;;;;19.98;4.97;;;;;;;11.85;86.18;101991.97;5053012;28;20029;-66
2023/06/02 02:41:07;;;;;;;20.65;5.05;;;;;;;11.88;87.41;101993.78;5053558;28;20047;-65
2023/06/02 02:43:32;;;;;;;22.73;5.25;;;;;;;11.85;87.30;101991.97;5053386;28;20045;-65
2023/06/02 02:45:57;;;;;;;18.95;5.15;;;;;;;11.84;87.51;101990.22;5053893;28;20040;-65
2023/06/02 02:48:23;;;;;;;19.90;5.63;;;;;;;11.88;87.27;101986.72;5052102;28;20041;-64
2023/06/02 02:50:48;;;;;;;19.23;4.80;;;;;;;11.89;88.00;101988.50;5052260;28;20037;-67
2023/06/02 02:53:15;;;;;;;19.92;4.97;;;;;;;11.86;88.28;101984.03;5052332;28;20031;-65
2023/06/02 02:55:44;;;;;;;20.80;5.00;;;;;;;11.82;89.63;101984.88;5053362;28;20057;-65
2023/06/02 02:58:09;;;;;;;21.38;5.72;;;;;;;11.80;90.35;101981.28;5053564;28;20372;-65
2023/06/02 03:00:35;;;;;;;22.02;5.22;;;;;;;11.85;91.10;101987.56;5052904;28;20040;-65
2023/06/02 03:03:01;;;;;;;21.30;5.30;;;;;;;11.74;91.48;101991.78;5052957;28;20021;-69
2023/06/02 03:05:26;;;;;;;22.40;5.80;;;;;;;11.78;90.10;101985.69;5052891;28;20500;-64
2023/06/02 03:07:52;;;;;;;19.88;5.53;;;;;;;11.74;91.53;101993.56;5056573;28;20068;-65
2023/06/02 03:10:18;;;;;;;21.60;5.63;;;;;;;11.74;92.09;101988.25;5052626;28;20017;-69
2023/06/02 03:12:43;;;;;;;20.45;5.65;;;;;;;11.80;92.32;101988.38;5053206;28;20033;-64
2023/06/02 03:15:09;;;;;;;22.13;6.20;;;;;;;11.74;93.10;101989.16;5052809;28;20021;-65
2023/06/02 03:17:37;;;;;;;21.90;5.85;;;;;;;11.70;93.00;101997.91;5051700;28;20025;-62
2023/06/02 03:20:08;;;;;;;21.30;6.00;;;;;;;11.66;91.24;101998.69;5050777;28;20040;-64
2023/06/02 03:22:34;;;;;;;22.08;5.70;;;;;;;11.73;91.66;101997.94;5050222;28;20029;-70
2023/06/02 03:24:59;;;;;;;20.23;5.53;;;;;;;11.61;93.21;101997.75;5052695;28;20033;-68
2023/06/02 03:27:25;;;;;;;21.92;5.70;;;;;;;11.61;93.27;102003.91;5052940;28;20029;-71
2023/06/02 03:29:50;;;;;;;21.73;5.72;;;;;;;11.48;93.87;102005.44;5052906;28;20036;-69
2023/06/02 03:32:16;;;;;;;21.13;5.28;;;;;;;11.48;95.44;102001.91;5052137;28;20511;-74
2023/06/02 03:34:44;;;;;;;21.80;5.53;;;;;;;11.48;93.93;102008.09;5052392;28;20025;-65
2023/06/02 03:37:11;;;;;;;20.83;5.43;;;;;;;11.51;93.20;101999.31;5051440;28;20056;-69
2023/06/02 03:39:37;;;;;;;19.63;5.20;;;;;;;11.54;91.73;102006.44;5052209;28;20087;-65
2023/06/02 03:42:03;;;;;;;21.10;5.20;;;;;;;11.49;91.05;102009.88;5052764;28;20446;-62
2023/06/02 03:44:28;;;;;;;19.65;4.95;;;;;;;11.45;91.06;102005.38;5052136;28;20422;-63
2023/06/02 03:46:53;;;;;;;20.25;5.25;;;;;;;11.45;92.02;102008.03;5052229;28;20029;-65
2023/06/02 03:49:19;;;;;;;20.15;5.65;;;;;;;11.52;91.88;102015.22;5051959;28;20029;-62
2023/06/02 03:51:46;;;;;;;20.77;5.43;;;;;;;11.42;91.22;102015.91;5052186;28;20056;-62
2023/06/02 03:54:12;;;;;;;19.48;5.13;;;;;;;11.36;90.79;102022.84;5052407;28;20530;-64
2023/06/02 03:56:37;;;;;;;20.60;5.13;;;;;;;11.32;89.73;102006.91;5055734;28;20025;-75
2023/06/02 03:59:03;;;;;;;20.23;5.70;;;;;;;11.35;89.24;102019.31;5052278;28;20033;-66
2023/06/02 04:01:28;;;;;;;21.80;5.30;;;;;;;11.40;89.92;102020.31;5051904;28;20024;-66
2023/06/02 04:03:54;;;;;;;20.27;4.90;;;;;;;11.38;89.89;102013.19;5051432;28;20078;-69
2023/06/02 04:06:19;;;;;;;21.25;5.50;;;;;;;11.38;91.16;102019.34;5051669;28;20029;-62
2023/06/02 04:08:48;;;;;;;17.83;5.00;;;;;;;11.37;91.33;102022.88;5051996;28;20103;-66
2023/06/02 04:11:13;;;;;;;20.13;5.03;;;;;;;11.24;91.62;102023.47;5052447;28;20041;-78
2023/06/02 04:13:39;;;;;;;20.33;5.35;;;;;;;11.32;89.85;102022.78;5052108;28;20472;-71
2023/06/02 04:16:04;;;;;;;21.38;5.32;;;;;;;11.26;89.38;102024.44;5052041;28;20467;-74
2023/06/02 04:18:31;;;;;;;20.00;4.93;;;;;;;11.27;88.78;102028.84;5050879;28;20037;-73
2023/06/02 04:20:57;;;;;;;19.35;4.97;;;;;;;11.24;88.48;102026.13;5051650;28;20059;-74
2023/06/02 04:23:23;;;;;;;19.73;5.10;;;;;;;11.20;87.82;102021.63;5051710;28;20033;-70
2023/06/02 04:25:48;;;;;;;20.13;4.90;;;;;;;11.23;86.84;102014.66;5051821;28;20484;-71
2023/06/02 04:28:15;;;;;;;20.60;5.07;;;;;;;11.23;85.57;102021.72;5052011;28;20044;-74
2023/06/02 04:30:40;;;;;;;19.83;4.90;;;;;;;11.18;86.98;102018.94;5051016;28;20040;-78
2023/06/02 04:33:06;;;;;;;19.90;4.82;;;;;;;11.12;87.94;102011.78;5051779;28;20514;-74
2023/06/02 04:35:32;;;;;;;18.42;4.97;;;;;;;11.15;86.87;102027.75;5051443;28;20100;-73
2023/06/02 04:37:58;;;;;;;19.25;5.18;;;;;;;11.13;86.88;102016.22;5051548;28;20075;-72
2023/06/02 04:40:23;;;;;;;21.45;5.00;;;;;;;11.16;87.44;102018.94;5051418;28;20460;-71
2023/06/02 04:42:48;;;;;;;18.92;5.18;;;;;;;11.18;87.82;102013.66;5050771;28;20064;-76
2023/06/02 04:45:16;;;;;;;19.27;5.03;;;;;;;11.20;88.02;102021.63;5050539;28;20029;-73
2023/06/02 04:47:42;;;;;;;19.52;5.03;;;;;;;11.20;88.28;102019.91;5051538;28;20452;-74
2023/06/02 04:50:09;;;;;;;19.88;5.00;;;;;;;11.26;88.51;102021.78;5050944;28;20036;-75
2023/06/02 04:52:38;;;;;;;19.98;4.70;;;;;;;11.28;86.87;102025.34;5051541;28;20387;-77
2023/06/02 04:55:03;;;;;;;18.35;4.80;;;;;;;11.29;87.10;102027.13;5051225;28;20044;-75
2023/06/02 04:57:29;;;;;;;20.58;5.00;;;;;;;11.20;86.38;102029.56;5051483;28;20037;-72
2023/06/02 04:59:54;;;;;;;17.15;4.40;;;;;;;11.20;86.53;102027.84;5051152;28;20029;-74
2023/06/02 05:02:19;;;;;;;19.70;4.60;;;;;;;11.19;86.38;102025.16;5051144;28;20461;-74
2023/06/02 05:04:45;;;;;;;20.10;4.65;;;;;;;11.27;87.09;102028.84;5051349;28;20036;-74
2023/06/02 05:07:10;;;;;;;20.55;4.80;;;;;;;11.33;85.48;102036.94;5051218;28;20029;-76
2023/06/02 05:09:35;;;;;;;17.85;4.32;;;;;;;11.36;86.90;102033.41;5047318;28;20025;-78
2023/06/02 05:12:01;;;;;;;20.52;5.10;;;;;;;11.48;86.93;102042.50;5051149;28;20041;-78
2023/06/02 05:14:26;;;;;;;19.48;4.38;;;;;;;11.46;84.99;102046.91;5051223;28;20033;-76
2023/06/02 05:16:53;;;;;;;18.05;4.45;;;;;;;11.44;84.80;102045.94;5048977;28;20021;-74
2023/06/02 05:19:19;;;;;;;19.55;4.75;;;;;;;11.44;82.99;102039.78;5049350;28;20017;-72
2023/06/02 05:21:44;;;;;;;19.77;4.40;;;;;;;11.50;83.18;102046.09;5051206;28;20030;-74
2023/06/02 05:24:10;;;;;;;20.88;4.50;;;;;;;11.49;82.92;102046.94;5051111;28;20116;-74
2023/06/02 05:26:37;;;;;;;19.45;4.15;;;;;;;11.59;82.35;102053.31;5050953;28;20125;-74
2023/06/02 05:29:02;;;;;;;17.42;4.05;;;;;;;11.55;80.41;102053.22;5051765;28;20029;-78
2023/06/02 05:31:27;;;;;;;21.38;5.00;;;;;;;11.49;81.92;102049.59;5054672;28;20057;-78
2023/06/02 05:33:53;;;;;;;16.63;4.07;;;;;;;11.52;81.91;102046.13;5055109;28;20105;-74
2023/06/02 05:36:18;;;;;;;19.15;4.38;;;;;;;11.56;81.96;102034.69;5054862;28;20096;-76
2023/06/02 05:38:44;;;;;;;21.33;4.57;;;;;;;11.49;81.51;102054.00;5052663;28;20037;-68
2023/06/02 05:41:10;;;;;;;19.65;4.32;;;;;;;11.42;81.60;102050.34;5053834;28;20029;-72
2023/06/02 05:43:36;;;;;;;20.60;4.13;;;;;;;11.54;82.69;102054.09;5054573;28;20082;-67
2023/06/02 05:46:01;;;;;;;20.02;4.25;;;;;;;11.64;83.05;102048.13;5054629;28;20034;-65
2023/06/02 05:48:26;;;;;;;20.63;4.28;;;;;;;11.62;83.06;102047.16;5054603;28;20041;-66
2023/06/02 05:50:52;;;;;;;19.08;4.38;;;;;;;11.62;82.32;102049.81;5054292;28;20041;-68
2023/06/02 05:53:17;;;;;;;22.50;4.38;;;;;;;11.61;82.41;102043.63;5054533;28;20025;-71
2023/06/02 05:55:43;;;;;;;19.40;4.10;;;;;;;11.67;81.64;102050.81;5054445;28;20037;-66
2023/06/02 05:58:08;;;;;;;20.63;4.43;;;;;;;11.77;82.33;102055.41;5054541;28;20032;-69
2023/06/02 06:00:34;;;;;;;21.70;4.32;;;;;;;11.81;80.38;102051.97;5053613;28;20047;-67
2023/06/02 06:02:59;;;;;;;20.65;4.40;;;;;;;11.78;80.74;102053.66;5054610;28;20078;-64
2023/06/02 06:05:24;;;;;;;20.20;4.28;;;;;;;11.78;80.59;102059.88;5050975;28;20029;-66
2023/06/02 06:07:50;;;;;;;19.33;4.28;;;;;;;11.88;81.48;102050.31;5054046;28;20025;-63
2023/06/02 06:10:15;;;;;;;21.27;4.00;;;;;;;11.89;77.53;102060.06;5054108;28;20044;-64
2023/06/02 06:12:41;;;;;;;19.52;4.20;;;;;;;11.84;78.54;102048.50;5053650;28;20033;-64
2023/06/02 06:15:06;;;;;;;18.88;4.18;;;;;;;11.90;80.34;102053.91;5054212;28;20025;-64
2023/06/02 06:17:32;;;;;;;21.13;4.20;;;;;;;11.94;77.88;102054.84;5054045;28;20028;-66
2023/06/02 06:19:57;;;;;;;20.50;4.07;;;;;;;12.08;77.67;102053.34;5052725;28;20025;-65
2023/06/02 06:22:23;;;;;;;18.92;4.03;;;;;;;12.21;76.45;102054.47;5054541;28;20460;-63
2023/06/02 06:24:48;;;;;;;21.75;4.03;;;;;;;12.26;74.65;102051.88;5053219;28;20037;-66
2023/06/02 06:27:13;;;;;;;24.30;4.57;;;;;;;12.27;74.73;102049.25;5053904;28;20090;-63
2023/06/02 06:29:39;;;;;;;20.73;4.05;;;;;;;12.31;75.47;102056.38;5054065;28;20032;-68
2023/06/02 06:32:07;;;;;;;20.65;3.95;;;;;;;12.43;74.21;102061.00;5055446;28;20167;-65
2023/06/02 06:34:33;;;;;;;20.65;4.00;;;;;;;12.47;74.88;102057.53;5053658;28;20071;-65
2023/06/02 06:36:59;;;;;;;22.15;4.00;;;;;;;12.57;73.11;102053.28;5053463;28;20057;-65
2023/06/02 06:39:24;;;;;;;19.30;3.90;;;;;;;12.58;71.92;102060.34;5052941;28;20021;-65
2023/06/02 06:41:50;;;;;;;18.98;3.72;;;;;;;12.56;72.28;102060.31;5052877;28;20048;-67
2023/06/02 06:44:15;;;;;;;21.83;4.35;;;;;;;12.64;72.05;102071.06;5054832;28;20033;-65
2023/06/02 06:46:41;;;;;;;19.13;3.90;;;;;;;12.63;71.04;102063.97;5053251;28;20033;-66
2023/06/02 06:49:06;;;;;;;19.33;4.00;;;;;;;12.56;70.63;102057.66;5052255;28;20079;-66
2023/06/02 06:51:31;;;;;;;20.02;4.13;;;;;;;12.60;70.87;102057.75;5053595;28;20387;-65
2023/06/02 06:53:57;;;;;;;21.42;4.07;;;;;;;12.64;70.29;102062.19;5053532;28;20025;-65
2023/06/02 06:56:22;;;;;;;19.33;4.10;;;;;;;12.62;70.79;102069.25;5052872;28;20120;-66
2023/06/02 06:58:48;;;;;;;21.83;4.20;;;;;;;12.69;70.51;102063.16;5053171;28;20028;-66
2023/06/02 07:01:13;;;;;;;17.58;3.72;;;;;;;12.76;70.80;102058.84;5050911;28;20357;-65
2023/06/02 07:03:39;;;;;;;17.10;3.83;;;;;;;12.83;70.63;102060.69;5052333;28;20053;-65
2023/06/02 07:06:04;;;;;;;19.20;3.95;;;;;;;12.90;70.33;102065.22;5052311;28;20533;-67
2023/06/02 07:08:30;;;;;;;19.83;4.03;;;;;;;12.98;69.31;102060.06;5052651;28;20037;-65
2023/06/02 07:10:56;;;;;;;20.60;4.07;;;;;;;13.09;68.65;102058.41;5052517;28;20029;-66
2023/06/02 07:13:21;;;;;;;18.92;3.80;;;;;;;13.30;67.29;102059.59;5052534;28;20078;-64
2023/06/02 07:15:48;;;;;;;20.25;4.20;;;;;;;13.23;67.72;102062.13;5053049;28;20439;-66
2023/06/02 07:18:13;;;;;;;19.90;4.30;;;;;;;13.25;67.19;102068.38;5052730;28;20052;-66
2023/06/02 07:20:39;;;;;;;20.35;4.07;;;;;;;13.46;67.46;102068.66;5050934;28;20479;-65
2023/06/02 07:23:04;;;;;;;22.08;4.35;;;;;;;13.64;65.77;102062.66;5051012;28;20104;-64
2023/06/02 07:25:29;;;;;;;19.25;3.90;;;;;;;13.87;65.21;102066.44;5052670;28;20052;-68
2023/06/02 07:27:55;;;;;;;19.23;3.83;;;;;;;14.06;64.26;102069.28;5052404;28;20075;-66
2023/06/02 07:30:20;;;;;;;21.85;4.00;;;;;;;14.04;63.38;102073.72;5047069;28;20036;-65
2023/06/02 07:32:46;;;;;;;18.67;3.85;;;;;;;14.15;63.32;102077.31;5051020;28;20076;-66
2023/06/02 07:35:11;;;;;;;18.98;4.00;;;;;;;14.14;62.18;102080.88;5050609;28;20361;-64
2023/06/02 07:37:37;;;;;;;19.80;4.10;;;;;;;14.04;62.78;102079.91;5048546;28;20025;-63
2023/06/02 07:40:02;;;;;;;18.80;3.72;;;;;;;13.99;62.44;102078.94;5052261;28;20072;-64
2023/06/02 07:42:28;;;;;;;21.98;4.00;;;;;;;13.95;62.55;102071.84;5052189;28;20029;-67
2023/06/02 07:44:54;;;;;;;18.38;3.70;;;;;;;14.08;61.85;102075.50;5052318;28;20025;-67
2023/06/02 07:47:20;;;;;;;19.52;3.90;;;;;;;14.10;62.98;102076.41;5052339;28;20059;-62
2023/06/02 07:49:45;;;;;;;18.40;3.70;;;;;;;14.37;62.41;102069.53;5052127;28;20057;-62
2023/06/02 07:52:11;;;;;;;18.60;3.90;;;;;;;14.51;61.13;102073.19;5051753;28;20035;-62
2023/06/02 07:54:36;;;;;;;20.60;3.90;;;;;;;14.49;60.25;102061.69;5052309;28;20051;-77
2023/06/02 07:57:01;;;;;;;20.35;3.70;;;;;;;14.61;60.70;102061.78;5051745;28;20458;-67
2023/06/02 07:59:27;;;;;;;19.55;3.95;;;;;;;14.85;60.30;102065.47;5051784;28;20033;-69
2023/06/02 08:01:52;;;;;;;23.75;4.38;;;;;;;15.21;59.94;102069.22;5052072;28;20036;-64
2023/06/02 08:04:17;;;;;;;22.05;4.20;;;;;;;15.20;58.77;102064.75;5050832;28;20029;-62
2023/06/02 08:06:43;;;;;;;20.20;4.28;;;;;;;15.29;59.31;102072.81;5051017;28;20033;-64
2023/06/02 08:09:08;;;;;;;19.65;4.10;;;;;;;15.30;59.57;102063.94;5051151;28;20064;-67
2023/06/02 08:11:34;;;;;;;20.58;3.92;;;;;;;15.24;57.20;102053.25;5051883;28;20044;-63
2023/06/02 08:13:59;;;;;;;16.35;3.47;;;;;;;15.38;57.29;102055.06;5052199;28;20029;-63
2023/06/02 08:16:25;;;;;;;21.25;4.25;;;;;;;15.37;56.39;102070.16;5051870;28;20029;-64
2023/06/02 08:18:50;;;;;;;21.63;4.25;;;;;;;15.29;56.50;102066.56;5051604;28;20033;-64
2023/06/02 08:21:16;;;;;;;17.63;3.67;;;;;;;15.22;56.48;102068.34;5033608;28;20094;-65
2023/06/02 08:23:42;;;;;;;17.77;3.70;;;;;;;15.27;56.86;102057.69;5051390;28;20033;-68
2023/06/02 08:26:07;;;;;;;18.13;3.75;;;;;;;15.48;56.32;102067.56;5052377;28;20096;-63
2023/06/02 08:28:33;;;;;;;18.45;3.70;;;;;;;15.31;55.84;102065.72;5051978;28;20377;-68
2023/06/02 08:31:01;;;;;;;18.08;3.75;;;;;;;15.19;56.86;102065.66;5050613;28;20507;-63
2023/06/02 08:33:27;;;;;;;18.92;3.60;;;;;;;15.15;56.68;102066.53;5051838;28;20045;-63
2023/06/02 08:35:53;;;;;;;20.25;4.07;;;;;;;15.26;56.33;102070.13;5050009;28;20045;-63
2023/06/02 08:38:19;;;;;;;18.58;3.70;;;;;;;15.25;56.74;102073.69;5051669;28;20460;-71
2023/06/02 08:40:47;;;;;;;18.27;4.05;;;;;;;15.30;56.10;102068.38;5051351;28;20082;-70
2023/06/02 08:43:13;;;;;;;18.83;3.63;;;;;;;15.53;56.24;102068.44;5051662;28;20029;-68
2023/06/02 08:45:44;;;;;;;18.33;3.80;;;;;;;15.59;55.58;102071.13;5052568;28;20044;-69
2023/06/02 08:48:15;;;;;;;21.23;4.07;;;;;;;15.62;55.67;102055.13;5051195;28;20036;-63
2023/06/02 08:50:43;;;;;;;19.60;3.70;;;;;;;15.77;55.32;102059.66;5051279;28;20021;-64
2023/06/02 08:53:11;;;;;;;20.55;4.10;;;;;;;15.80;55.64;102064.09;5051502;28;20490;-62
2023/06/02 08:55:39;;;;;;;20.08;3.90;;;;;;;16.20;54.69;102066.81;5050642;28;20033;-65
2023/06/02 08:58:05;;;;;;;19.02;3.83;;;;;;;16.45;53.69;102059.69;5049761;28;20029;-63
2023/06/02 09:00:31;;;;;;;19.83;4.00;;;;;;;16.69;52.66;102052.56;5050536;28;20061;-63
2023/06/02 09:02:56;;;;;;;20.75;4.00;;;;;;;16.73;53.32;102054.31;5052122;28;20419;-61
2023/06/02 09:05:22;;;;;;;18.55;4.13;;;;;;;16.59;52.32;102051.69;5054489;28;20087;-61
2023/06/02 09:07:47;;;;;;;20.85;4.10;;;;;;;16.74;52.15;102053.44;5055581;28;20033;-63
2023/06/02 09:10:43;;;;;;;19.10;3.90;;;;;;;16.75;52.76;102063.22;5054781;28;20052;-61
2023/06/02 09:13:32;;;;;;;18.83;3.85;;;;;;;16.69;52.48;102064.13;5053454;28;20064;-77
2023/06/02 09:16:02;;;;;;;19.25;4.00;;;;;;;16.83;51.65;102061.41;5054487;28;20048;-75
2023/06/02 09:18:27;;;;;;;20.20;4.05;;;;;;;17.08;50.63;102046.25;5055417;28;20478;-75
2023/06/02 09:20:54;;;;;;;23.88;4.22;;;;;;;17.17;51.57;102047.09;5054551;28;20065;-68
2023/06/02 09:23:21;;;;;;;20.13;4.10;;;;;;;17.40;50.89;102057.69;5054931;28;20025;-77
2023/06/02 09:25:46;;;;;;;21.52;4.68;;;;;;;17.22;51.02;102050.66;5055396;28;20354;-61
2023/06/02 09:28:12;;;;;;;18.73;4.20;;;;;;;17.29;52.51;102048.84;5055137;28;20059;-63
2023/06/02 09:30:38;;;;;;;19.08;3.95;;;;;;;17.54;51.12;102046.94;5052351;28;20442;-74
2023/06/02 09:33:09;;;;;;;20.25;4.22;;;;;;;17.96;50.03;102046.72;5054192;28;20388;-74
2023/06/02 09:35:45;;;;;;;21.40;4.15;;;;;;;17.71;49.51;102045.03;5054478;28;20384;-75
2023/06/02 09:38:16;;;;;;;21.05;4.10;;;;;;;18.02;50.02;102046.66;5055044;28;20083;-74
2023/06/02 09:40:43;;;;;;;18.98;4.20;;;;;;;18.64;49.52;102047.88;5054310;28;20052;-61
2023/06/02 09:43:11;;;;;;;20.23;4.40;;;;;;;19.13;46.58;102045.56;5054932;28;20040;-61
2023/06/02 09:45:48;;;;;;;19.05;4.10;;;;;;;19.61;46.19;102043.13;5054299;28;20108;-61
2023/06/02 09:48:24;;;;;;;22.92;4.28;;;;;;;19.70;46.36;102042.09;5054276;28;20033;-62
2023/06/02 09:50:49;;;;;;;20.02;4.60;;;;;;;19.50;45.66;102037.94;5054011;28;20028;-61
2023/06/02 09:53:17;;;;;;;19.60;4.20;;;;;;;19.56;46.11;102042.31;5054824;28;20071;-64
2023/06/02 09:55:44;;;;;;;19.33;4.18;;;;;;;19.63;46.21;102032.38;5054551;28;20037;-66
2023/06/02 09:58:10;;;;;;;18.80;4.13;;;;;;;19.55;45.62;102039.66;5053838;28;20103;-65
2023/06/02 10:00:35;;;;;;;19.77;4.25;;;;;;;19.23;46.16;102043.66;5052938;28;20120;-62
2023/06/02 10:03:01;;;;;;;18.63;4.35;;;;;;;19.14;46.67;102039.31;5054293;28;20091;-64
2023/06/02 10:05:28;;;;;;;19.63;4.10;;;;;;;19.72;45.25;102028.66;5054219;28;20376;-64
2023/06/02 10:08:21;;;;;;;18.75;4.03;;;;;;;20.65;44.12;102038.75;5054536;28;20108;-63
2023/06/02 10:11:15;;;;;;;18.42;3.90;;;;;;;21.79;42.82;102041.81;5051325;28;20112;-63
2023/06/02 10:13:40;;;;;;;18.30;3.92;;;;;;;21.94;40.55;102041.44;5050617;28;20032;-63
2023/06/02 10:16:05;;;;;;;18.75;4.10;;;;;;;21.07;42.04;102036.16;5053591;28;20471;-64
2023/06/02 10:19:04;;;;;;;18.80;4.10;;;;;;;20.85;43.25;102028.56;5054024;28;20056;-65
2023/06/02 10:21:55;;;;;;;20.25;4.20;;;;;;;21.30;43.70;102032.13;5053114;28;20056;-63
2023/06/02 10:24:30;;;;;;;17.27;4.10;;;;;;;23.48;39.32;102039.03;5050754;28;20037;-63
2023/06/02 10:27:26;;;;;;;18.70;4.00;;;;;;;23.16;39.66;102040.03;5051629;28;20475;-63
2023/06/02 10:29:53;;;;;;;18.60;4.15;;;;;;;22.05;40.04;102040.28;5050428;28;20044;-63
2023/06/02 10:32:24;;;;;;;20.27;4.05;;;;;;;21.75;40.39;102040.97;5053636;28;20052;-66
2023/06/02 10:34:53;;;;;;;21.58;4.28;;;;;;;23.15;39.32;102036.47;5053003;28;20036;-63
2023/06/02 10:37:21;;;;;;;19.27;4.10;;;;;;;25.10;37.43;102037.19;5053737;28;20029;-63
2023/06/02 10:39:50;;;;;;;19.25;4.13;;;;;;;27.49;33.42;102040.59;5053500;28;20033;-64
2023/06/02 10:42:15;;;;;;;18.55;4.10;;;;;;;28.96;30.26;102030.41;5053944;28;20036;-64
2023/06/02 10:44:41;;;;;;;18.90;4.00;;;;;;;27.57;30.69;102030.25;5053648;28;20033;-64
2023/06/02 10:47:18;;;;;;;18.08;3.83;;;;;;;25.85;34.52;102034.25;5053058;28;20029;-67
2023/06/02 10:49:59;;;;;;;18.73;4.28;;;;;;;24.66;35.64;102027.09;5051321;28;20476;-63
2023/06/02 10:52:30;;;;;;;19.20;4.22;;;;;;;24.00;37.25;102031.13;5053637;28;20043;-63
2023/06/02 10:55:07;;;;;;;16.23;4.00;;;;;;;23.06;38.91;102030.41;5053387;28;20055;-63
2023/06/02 10:57:49;;;;;;;18.90;4.13;;;;;;;24.85;37.35;102032.69;5051006;28;20056;-68
2023/06/02 11:00:30;;;;;;;18.75;4.43;;;;;;;25.42;35.06;102029.69;5052702;28;20112;-68
2023/06/02 11:02:56;;;;;;;20.23;4.00;;;;;;;26.18;33.70;102031.06;5053604;28;20031;-69
2023/06/02 11:05:29;;;;;;;18.95;3.90;;;;;;;26.32;34.02;102040.47;5053450;28;20029;-75
2023/06/02 11:08:18;;;;;;;18.48;4.18;;;;;;;25.44;34.97;102028.69;5052856;28;20029;-70
2023/06/02 11:10:45;;;;;;;16.83;3.85;;;;;;;24.35;36.65;102029.03;5050705;28;20059;-66
2023/06/02 11:13:13;;;;;;;21.13;4.30;;;;;;;25.53;35.12;102022.03;5052974;28;20426;-71
2023/06/02 11:15:39;;;;;;;17.80;4.25;;;;;;;26.29;33.16;102022.50;5053531;28;20386;-72
2023/06/02 11:18:23;;;;;;;21.33;4.45;;;;;;;26.24;35.12;102019.09;5053059;28;20029;-75